Airfield :
LOGIN :

Register | Disclaimer

   EN    FR    IT 

 










Legend :    VFR   Marginal VFR   IFR   Intensive IFR   Very Intensive IFR
Visi :
Ceiling :
>= 8 km
>= 3000ft
5 to 8 km
1000 to 3000 ft
1500m to 5 km
500 to 1000 ft
800 to 1500m
200 to 500 ft
< 800m
< 200 ft
Symbols :   Thunderstorms  Fog  Heavy snow  Heavy precipitations  Wind > 20 kt
SIGMETs :     Misc.  Thunderstorms  Icing  Turbulence  Mountain Waves  Volcanic Ashes






- Airport Elevation : 82 ft
- IATA code : AAR


EKAH - Aarhus Tirstrup

CURRENT METAR :
  • 150220Z AUTO 09008KT 9999NDV FEW011/// 07/06 Q1016

EXPIRED METARs :
  • 150150Z AUTO 10007KT 5000NDV NCD 06/05 Q1016
  • 150120Z AUTO 09006KT 6000NDV NCD 06/05 Q1016
  • 150050Z AUTO 11006KT 5000NDV FEW010/// 06/05 Q1016
  • 150020Z AUTO 10005KT 3100NDV R10R/1400N R28L/P1500N BR SCT011/// 05/05 Q1015
  • 142350Z AUTO 10003KT 0300NDV R10R/0500N R28L/P1500N FG FEW011/// 04/03 Q1015

TAF AMD TAF EKAH
Valid from the 15 at 00:00 until the 16 at 00:00 UTC


150001Z 1500/1524 11008KT 6000 SCT010 BKN015
TEMPO 1500/1503 0300 FG BKN010
BECMG 1505/1508 08015G28KT
BECMG 1519/1521 08012KT BKN010
BECMG 1522/1524 BKN006



MET'MAP, your aeronautical weather chart ! - Copyright ORBIFLY December 2007 - Disclaimer

ORBIFLY MET'MAP TEAM :

Programming & Development : Alexandra Zaïnal
Concept & Development : Baudouin d'Aumeries
Co-Development & Prog : Marc-Olivier Méhu
Technical & hardware support : Manuel Goepfert

Contact : metmap@orbifly.com




SOURCES & CREDITS :

   NOAA